メインページ
METAR-TAF:

METAR-TAF

空港 :

出雲空港

出雲, 日本

緯度: 35-25N, 経度: 132-54E, 海抜: 2m

現時点の気象観測

当レポートは18分前の22:00(UTC)に作成
南/南西の風 5kt
気温 11°C
湿度 87%
気圧 1018 hPa
視程10km以上
高度3000ftの雲はほとんどない
高度4000ftの雲は散在している
高度6000ftの千切れ雲あり

METAR: RJOC 162200Z 20005KT 9999 FEW030 SCT040 BKN060 11/09 Q1018

時間: 07:18 (22:18 UTC)

予報

当レポートは5時間13分前の17:05(UTC)に作成
予報は16日の 18時(UTC)から 18日の 00時(UTC)まで有効
の風 6kt
視程10km以上
高度2000ftの雲はほとんどない
高度5000ftの雲は散在している
17日の 00時(UTC)から 17日の 02時(UTC)まで徐々に
東/北東の風 14kt
17日の 12時(UTC)から 17日の 15時(UTC)まで徐々に
の風 5kt

TAF: RJOC 161705Z 1618/1800 17006KT 9999 FEW020 SCT050 BECMG 1700/1702 06014KT BECMG 1712/1715 17005KT

4,000以上の空港の気象観測と天気予報(METAR報とTAF報)

利用可能な観測所は地図上に黄色い丸と赤い丸で示す。

丸の上にカーソルを重ねると観測所名を参照できる。

次にクリックすると気象観測と天気予報を参照できる。

マップの切り替え:黒色「×」印の緑ボタンをクリックして拡大、「-」印の緑ボタンをクリックして縮小、緑色の三角印をクリックして隣りの地図に切り替え


METAR-TAF: